x

9431647 - Port Orford, Or (poro3) Weather Station

4:18am - Tue 21st Nov 2017 All times are PST. -8 hours from GMT.

  • Wind
    17mph, 21mph gusts
  • Sea Temp 53°f
  • Air Temp 60°f
  • Sea Pressure 1013.6mb
  • 9431647 - Port Orford, Or
  • 9431647 - Port Orford, Or

More Historic Weather Station data

Upgrade to MSW Pro to gain access to the past 30 days of data for over 8000 Wavebouys and Weather Stations around the globe.

Join

Comparision Forecast

View Surf forecast
   
Tue 11/21 4:18am 17 21 mph 1013.6mb 53f 60f
4:12am 20 24 mph 1013.3mb 53f 61f
4:06am 20 22 mph 1013.1mb 53f 61f
4:00am 21 22 mph 1013mb 53f 62f
3:54am 20 22 mph 1012.9mb 53f 62f
3:48am 18 23 mph 1013mb 53f 62f
3:42am 18 22 mph 1012.9mb 53f 62f
3:36am 17 28 mph 1012.9mb 53f 63f
3:30am 22 33 mph 1012.8mb 53f 66f
3:24am 24 30 mph 1012.5mb 53f 66f
3:18am 17 22 mph 1013.1mb 53f 61f
3:12am 21 25 mph 1013.7mb 53f 58f
3:06am 22 25 mph 1014mb 53f 57f
3:00am 22 25 mph 1014.3mb 53f 57f
2:54am 22 26 mph 1014.5mb 53f 56f
2:48am 23 26 mph 1014.6mb 53f 56f
2:42am 20 24 mph 1015mb 53f 56f
2:36am 16 20 mph 1015.1mb 53f 56f
2:30am 17 21 mph 1015.2mb 53f 56f
2:24am 18 23 mph 1015.2mb 53f 56f
2:18am 22 25 mph 1015.1mb 53f 56f
2:12am 16 22 mph 1015.1mb 53f 56f
2:06am 17 22 mph 1014.9mb 53f 56f
2:00am 22 28 mph 1014.9mb 53f 56f
1:54am 24 30 mph 1014.9mb 53f 57f
1:48am 24 28 mph 1014.8mb 53f 57f
1:42am 21 23 mph 1014.8mb 53f 57f
1:36am 15 20 mph 1014.8mb 53f 56f
1:30am 17 23 mph 1014.8mb 53f 57f
1:24am 21 30 mph 1014.8mb 53f 58f
1:18am 23 28 mph 1014.4mb 53f 59f
1:12am 17 23 mph 1014.6mb 53f 57f
1:06am 20 26 mph 1014.8mb 53f 57f
1:00am 23 30 mph 1014.8mb 53f 57f
12:54am 23 25 mph 1015mb 53f 57f
12:48am 21 23 mph 1015.1mb 53f 57f
12:42am 23 26 mph 1015mb 53f 57f
12:36am 23 26 mph 1015mb 53f 57f
12:30am 22 25 mph 1014.8mb 53f 57f
12:24am 21 24 mph 1014.8mb 53f 57f
12:18am 22 25 mph 1014.9mb 53f 57f
12:12am 22 28 mph 1014.7mb 53f 57f
12:06am 23 26 mph 1014.6mb 53f 57f
12:00am 23 28 mph 1014.6mb 53f 57f
Mon 11/20 11:54pm 24 30 mph 1014.7mb 53f 57f
11:48pm 23 30 mph 1014.7mb 53f 57f
11:42pm 26 33 mph 1014.6mb 53f 57f
11:36pm 28 32 mph 1014.9mb 53f 57f
11:30pm 29 32 mph 1015mb 53f 57f
11:24pm 26 33 mph 1015.3mb 53f 57f
11:18pm 26 31 mph 1015.2mb 53f 57f
11:12pm 26 33 mph 1015.3mb 53f 57f
11:06pm 22 26 mph 1015.3mb 53f 57f
11:00pm 22 29 mph 1015.2mb 53f 57f
10:54pm 24 29 mph 1015.3mb 53f 57f
10:48pm 21 26 mph 1015.2mb 53f 56f
10:42pm 21 26 mph 1015.2mb 53f 56f
10:36pm 23 29 mph 1015.1mb 53f 56f
10:30pm 24 29 mph 1015.1mb 53f 56f
10:24pm 25 31 mph 1015.1mb 53f 56f
10:18pm 28 32 mph 1015.1mb 53f 57f
10:12pm 26 30 mph 1015.1mb 53f 57f
10:06pm 26 30 mph 1015.1mb 53f 57f
10:00pm 22 25 mph 1014.9mb 53f 57f
9:54pm 23 28 mph 1014.8mb 53f 57f
9:48pm 25 30 mph 1014.8mb 53f 57f
9:42pm 24 26 mph 1014.6mb 53f 57f
9:36pm 21 28 mph 1014.5mb 53f 57f
9:30pm 23 29 mph 1014.3mb 52f 57f
9:24pm 23 29 mph 1014.2mb 52f 57f
9:18pm 23 28 mph 1014.1mb 52f 57f
9:12pm 22 25 mph 1014.1mb 52f 57f
9:06pm 22 28 mph 1014mb 52f 57f
9:00pm 22 28 mph 1013.9mb 52f 57f
8:54pm 23 29 mph 1013.7mb 52f 57f
8:48pm 22 28 mph 1013.7mb 52f 57f
8:42pm 23 29 mph 1013.6mb 52f 57f
8:36pm 23 29 mph 1013.4mb 52f 57f
8:30pm 24 30 mph 1013.3mb 52f 57f
8:24pm 24 29 mph 1013.2mb 52f 57f
8:18pm 24 31 mph 1013.3mb 52f 57f
8:12pm 24 28 mph 1013.3mb 52f 57f
8:06pm 22 28 mph 1013.2mb 52f 57f
8:00pm 22 26 mph 1013.3mb 52f 57f
7:54pm 22 26 mph 1013.1mb 52f 57f
7:48pm 21 24 mph 1013.2mb 52f 57f
7:42pm 20 24 mph 1013.2mb 52f 56f
7:36pm 21 25 mph 1013.3mb 52f 57f
7:30pm 21 25 mph 1013.2mb 52f 57f
7:24pm 20 24 mph 1013.2mb 52f 56f
7:18pm 20 24 mph 1013mb 52f 56f
7:12pm 20 24 mph 1012.9mb 52f 56f
7:06pm 20 24 mph 1012.9mb 52f 57f
7:00pm 20 24 mph 1012.8mb 52f 57f
6:54pm 20 24 mph 1012.8mb 52f 56f
6:48pm 20 25 mph 1012.9mb 52f 56f
6:42pm 20 23 mph 1012.8mb 52f 56f
6:36pm 18 22 mph 1012.7mb 52f 56f
6:30pm 17 21 mph 1012.6mb 52f 56f
6:24pm 16 20 mph 1012.6mb 52f 56f
6:18pm 14 16 mph 1012.5mb 52f 56f
6:12pm 15 16 mph 1012.4mb 52f 56f
6:06pm 15 17 mph 1012.3mb 52f 56f
6:00pm 17 21 mph 1012.3mb 52f 57f
5:54pm 17 21 mph 1012.2mb 52f 57f
5:48pm 18 26 mph 1012.1mb 52f 58f
5:42pm 10 11 mph 1012.1mb 52f 56f
5:36pm 8 10 mph 1012mb 52f 56f
5:30pm 9 13 mph 1011.9mb 52f 56f
5:24pm 9 13 mph 1012mb 52f 56f
5:18pm 8 10 mph 1011.9mb 52f 56f
5:12pm 8 11 mph 1012.1mb 52f 55f
5:06pm 6 8 mph 1012.1mb 52f 55f
5:00pm 5 7 mph 1012.1mb 52f 55f
4:48pm 3 5 mph 1012.1mb 52f 55f
4:42pm 3 6 mph 1012.3mb 52f 55f
4:36pm 6 7 mph 1012.2mb 52f 55f
4:30pm 5 7 mph 1012.3mb 52f 55f
4:24pm 5 6 mph 1012.4mb 52f 54f
4:18pm 6 6 mph 1012.5mb 52f 54f
4:12pm 2 7 mph 1012.6mb 52f 54f
4:06pm 6 7 mph 1012.4mb 52f 54f
4:00pm 6 6 mph 1012.3mb 52f 54f
3:54pm 3 3 mph 1012.6mb 52f 54f
3:48pm 3 3 mph 1012.6mb 52f 54f
3:42pm 3 5 mph 1012.7mb 52f 54f
3:36pm 5 6 mph 1012.8mb 52f 54f
3:30pm 7 9 mph 1012.8mb 52f 54f
3:24pm 9 11 mph 1012.7mb 52f 54f
3:18pm 11 13 mph 1012.7mb 52f 54f
3:12pm 11 15 mph 1012.6mb 52f 54f
3:06pm 14 15 mph 1012.6mb 52f 54f
3:00pm 14 16 mph 1012.7mb 52f 54f
2:54pm 14 16 mph 1012.7mb 52f 54f
2:48pm 13 17 mph 1012.7mb 52f -
2:42pm 15 17 mph 1012.7mb 52f 55f
2:36pm 14 16 mph 1012.7mb 52f 55f
2:30pm 8 9 mph 1012.7mb 52f 54f
2:24pm 8 10 mph 1012.6mb 52f 54f
2:18pm 7 9 mph 1012.7mb 52f 53f
2:12pm 6 9 mph 1012.7mb 52f 53f
2:06pm 7 8 mph 1012.7mb 52f 53f
2:00pm  -  2 mph 1012.7mb 52f 53f
1:54pm  -  1 mph 1012.9mb 52f 53f
1:48pm  -  1 mph 1012.9mb 52f 53f
1:42pm  -  1 mph 1012.9mb 52f 53f
1:36pm  -  1 mph 1012.9mb 52f 53f
1:30pm  -  1 mph 1012.9mb 52f 53f
1:24pm  -  1 mph 1012.8mb 52f 53f
1:18pm  -  1 mph 1012.8mb 52f 53f
1:12pm  -  1 mph 1012.7mb 52f 53f
1:06pm  -  0 mph 1012.7mb 52f 53f
1:00pm  -  1 mph 1012.7mb 52f 53f
12:54pm  -  0 mph 1012.8mb 52f 53f
12:48pm  -  0 mph 1012.8mb 52f 53f
12:42pm  -  1 mph 1012.6mb 52f 53f
12:36pm  -  1 mph 1012.7mb 52f 53f
12:30pm  -  2 mph 1012.8mb 52f 53f
12:24pm  -  1 mph 1012.9mb 52f 53f
12:18pm 1 2 mph 1012.9mb 52f 53f
12:12pm 1 2 mph 1012.8mb 52f 53f
12:06pm  -  2 mph 1012.8mb 52f 53f
12:00pm 2 5 mph 1012.7mb 52f 53f
11:54am 5 6 mph 1012.6mb 52f 53f
11:48am 5 6 mph 1012.8mb - -
11:42am 5 5 mph 1012.9mb 52f 53f
11:36am 3 3 mph 1012.9mb 52f 53f
11:30am  -  1 mph 1012.9mb 52f 53f
11:24am  -  2 mph 1012.8mb 52f 53f
11:18am 2 3 mph 1012.8mb 52f 53f
11:12am 2 3 mph 1012.5mb 52f 53f
11:06am 1 2 mph 1012.5mb 52f 53f
11:00am 1 2 mph 1012.7mb 52f 53f
10:54am 2 5 mph 1012.6mb 52f 53f
10:48am 3 5 mph 1012.6mb 52f 53f
10:42am 3 5 mph 1012.6mb 52f 53f
10:36am 2 6 mph 1012.5mb 52f 54f
10:30am 6 8 mph 1012.3mb 52f 54f
10:24am 10 14 mph 1012.2mb 52f 54f
10:18am 9 17 mph 1012mb - -
10:12am 17 18 mph 1011.9mb 52f 54f
10:06am 16 20 mph 1011.8mb 52f 54f
10:00am 16 20 mph 1011.8mb 52f 54f
9:54am 14 17 mph 1011.7mb 52f 54f
9:48am 16 21 mph 1011.8mb 52f 54f
9:42am 15 22 mph 1011.6mb 52f 54f
9:36am 18 22 mph 1011.4mb 52f 55f
9:30am 17 21 mph 1011.4mb 52f 54f
9:24am 18 23 mph 1011.1mb 52f 54f
9:18am 17 22 mph 1011mb 52f 54f
9:12am 18 24 mph 1010.9mb 52f 54f
9:06am 22 24 mph 1010.8mb 52f 55f
9:00am 16 22 mph 1010.7mb 52f 54f
8:54am 21 28 mph 1010.6mb 52f 55f
8:48am 20 25 mph 1010.5mb 52f 55f
8:42am 21 24 mph 1010.5mb 52f 55f
8:36am 20 26 mph 1010.3mb 52f 55f
8:30am 18 25 mph 1010.1mb 52f 55f
8:24am 21 24 mph 1009.8mb 52f 55f
8:18am 23 31 mph 1009.9mb 52f 55f
8:12am 23 38 mph 1009.8mb 52f 55f
8:06am 24 28 mph 1009.4mb 52f 55f
8:00am 21 30 mph 1009.5mb 52f 54f
7:54am 25 32 mph 1009.5mb 52f 55f
7:48am 33 39 mph 1009.4mb 52f 55f
7:42am 26 37 mph 1009.5mb 52f 55f
7:36am 28 43 mph 1009.2mb 52f 55f
7:30am 25 33 mph 1009.2mb 52f 55f
7:24am 29 37 mph 1009mb 52f 55f
7:18am 28 34 mph 1008.8mb 52f 55f
7:12am 29 34 mph 1008.6mb 52f 55f
7:06am 29 37 mph 1008.6mb 52f 55f
7:00am 30 34 mph 1008.4mb 52f 55f
6:54am 30 37 mph 1008.2mb 52f 55f
6:48am 29 34 mph 1008.1mb 52f 55f
6:42am 29 34 mph 1008.3mb 52f 54f
6:36am 29 33 mph 1008.2mb 52f 54f
6:30am 29 37 mph 1008mb 52f 55f
6:24am 29 36 mph 1007.7mb 52f 54f
6:18am 30 37 mph 1007.6mb 52f 54f
6:12am 29 33 mph 1007.6mb 52f 54f
6:06am 29 34 mph 1007.5mb 52f 54f
6:00am 28 36 mph 1007.3mb 52f 54f
5:54am 29 40 mph 1007.5mb 52f 54f
5:48am 30 37 mph 1007.5mb 52f 54f
5:42am 30 37 mph 1007.6mb 52f 54f
5:36am 30 37 mph 1007.5mb 52f 55f
5:30am 29 34 mph 1007.5mb 52f 54f
5:24am 31 39 mph 1007.5mb 52f 55f
5:18am 29 38 mph 1007.6mb 52f 54f
5:12am 33 40 mph 1007.5mb 52f 55f
5:06am 31 39 mph 1007.4mb 52f 54f
5:00am 31 37 mph 1007.3mb 52f 54f
4:54am 32 39 mph 1007.4mb 52f 54f
4:48am 31 38 mph 1007.4mb 52f 54f
4:42am 33 40 mph 1007.4mb 52f 54f
4:36am 32 40 mph 1007.5mb 52f 54f
4:30am 33 40 mph 1007.4mb 52f 54f
4:24am 33 41 mph 1007.4mb 52f 54f
4:18am 34 39 mph 1007.3mb 52f 54f
4:12am 32 39 mph 1007.3mb 52f 54f
4:06am 31 38 mph 1007.3mb 52f 54f
4:00am 30 39 mph 1007.3mb 52f 54f
3:54am 33 40 mph 1007.2mb 51f 54f
3:48am 32 39 mph 1007.2mb 51f 54f
3:42am 34 41 mph 1007.3mb 51f 54f
3:36am 32 45 mph 1007.3mb 51f 55f
3:30am 36 44 mph 1007.2mb 51f 55f
3:24am 38 46 mph 1007.1mb 51f 55f
3:18am 36 41 mph 1007.2mb 51f 55f
3:12am 33 41 mph 1007.4mb 51f 55f
3:06am 36 40 mph 1007.5mb 51f 55f
3:00am 34 39 mph 1007.5mb 51f 55f
2:54am 33 41 mph 1007.7mb 51f 55f
2:48am 34 41 mph 1007.7mb 51f 54f
2:42am 36 44 mph 1007.6mb 51f 54f
2:36am 34 41 mph 1007.8mb 51f 54f
2:30am 33 40 mph 1007.9mb 51f 55f
2:24am 34 40 mph 1007.9mb 51f 55f
2:18am 32 38 mph 1008mb 51f 54f
2:12am 30 38 mph 1008mb 51f 54f
2:06am 30 37 mph 1008mb 51f 54f
2:00am 32 39 mph 1008.1mb 51f 54f
1:54am 34 40 mph 1007.9mb 51f 54f
1:48am 33 41 mph 1008mb 51f 54f
1:42am 33 38 mph 1008mb 51f 54f
1:36am 31 39 mph 1008.2mb 51f 54f
1:30am 34 40 mph 1008.2mb 51f 54f
1:24am 32 41 mph 1008.3mb 51f 54f
1:18am 31 37 mph 1008.3mb 51f 54f
1:12am 29 36 mph 1008.3mb 51f 54f
1:06am 28 36 mph 1008.4mb 51f 54f
1:00am 28 31 mph 1008.4mb 51f 54f
12:54am 28 31 mph 1008.5mb 51f 54f
12:48am 24 30 mph 1008.6mb 51f 53f
12:42am 25 31 mph 1008.7mb 51f 53f
12:36am 23 29 mph 1008.8mb 51f 53f
12:30am 22 29 mph 1008.9mb 51f 53f
12:24am 23 28 mph 1009mb 51f 53f
12:18am 23 28 mph 1009.1mb 51f 53f
12:12am 22 28 mph 1009.2mb 51f 53f
12:06am 22 25 mph 1009.3mb 51f 53f
12:00am 23 25 mph 1009.3mb 51f 53f
Sun 11/19 11:54pm 23 28 mph 1009.5mb 51f 52f
11:48pm 22 28 mph 1009.5mb 51f 52f
11:42pm 23 28 mph 1009.6mb 51f 53f
11:36pm 21 25 mph 1009.7mb 51f 53f
11:30pm 18 22 mph 1009.8mb 51f 52f
11:24pm 20 25 mph 1009.9mb 51f 52f
11:18pm 20 26 mph 1010mb 51f 52f
11:12pm 23 26 mph 1010mb 51f 52f
11:06pm 22 26 mph 1009.9mb 51f 52f
11:00pm 23 28 mph 1010mb 51f 52f
10:54pm 25 30 mph 1010mb 51f 52f
10:48pm 23 29 mph 1010.2mb 51f 52f
10:42pm 22 26 mph 1010.4mb 51f 51f
10:36pm 23 31 mph 1010.4mb 51f 51f
10:30pm 25 34 mph 1010.5mb 51f 51f
10:24pm 25 32 mph 1010.5mb 51f 51f
10:18pm 25 31 mph 1010.7mb 51f -
10:12pm 26 32 mph 1010.8mb 51f -
10:06pm 26 31 mph 1011mb 51f -
10:00pm 23 29 mph 1011.1mb 51f 52f
9:54pm 25 30 mph 1011.2mb 51f 52f
9:48pm 26 31 mph 1011.2mb 51f -
9:42pm 29 33 mph 1011.2mb 51f -
9:36pm 30 37 mph 1011.1mb 51f -
9:30pm 30 38 mph 1011.1mb 51f 52f
9:24pm 29 34 mph 1011.2mb 51f 53f
9:18pm 28 34 mph 1011.2mb 51f 53f
9:12pm 31 40 mph 1011.2mb 51f 53f
9:06pm 32 41 mph 1011.2mb 51f 53f
9:00pm 32 38 mph 1011mb 51f 53f
8:54pm 26 34 mph 1011.2mb 51f 53f
8:48pm 26 33 mph 1011.3mb 51f 53f
8:42pm 29 38 mph 1011.3mb 51f 53f
8:36pm 32 39 mph 1011.3mb 51f 53f
8:30pm 28 37 mph 1011.4mb 51f 53f
8:24pm 30 36 mph 1011.3mb 51f 53f
8:18pm 28 39 mph 1011.1mb 51f 53f
8:12pm 22 25 mph 1011.3mb 51f 52f
8:06pm 20 24 mph 1011.4mb 51f 52f
8:00pm 20 26 mph 1011.3mb 51f 52f
7:54pm 23 25 mph 1011.5mb 51f 52f
7:48pm 22 25 mph 1011.3mb 51f 52f
7:42pm 18 23 mph 1011.3mb 51f 52f
7:36pm 22 29 mph 1011.2mb 51f 52f
7:30pm 23 28 mph 1011mb 51f 52f
7:24pm 24 32 mph 1010.8mb 51f 52f
7:18pm 26 39 mph 1010.7mb 51f 52f
7:12pm 29 38 mph 1010.9mb 51f 52f
7:06pm 23 41 mph 1011.3mb 51f 52f
7:00pm 29 38 mph 1011.6mb 51f 52f
6:54pm 31 40 mph 1011.6mb 51f 52f
6:48pm 31 39 mph 1012mb 51f 51f
6:42pm 28 38 mph 1012.4mb 51f 51f
6:36pm 28 37 mph 1012.6mb 51f 51f
6:30pm 26 39 mph 1012.7mb 51f 51f
6:24pm 29 36 mph 1012.7mb 51f 52f
6:18pm 24 37 mph 1013mb 51f 51f
6:12pm 26 38 mph 1013.3mb 51f 51f
6:06pm 30 43 mph 1013.4mb 51f 52f
6:00pm 33 43 mph 1013.5mb 51f 52f
5:54pm 32 39 mph 1013.4mb 51f 52f
5:48pm 31 45 mph 1013.4mb 51f 52f
5:42pm 32 40 mph 1013.2mb 51f 52f
5:36pm 31 41 mph 1013.3mb 51f 53f
5:30pm 32 39 mph 1013.4mb 51f 53f
5:24pm 31 41 mph 1013.5mb 51f 53f
5:18pm 34 39 mph 1013.6mb 51f 53f
5:12pm 33 38 mph 1013.6mb 51f 53f
5:06pm 29 38 mph 1013.5mb 51f 53f
5:00pm 26 38 mph 1013.5mb 51f 53f
4:54pm 29 37 mph 1013.6mb 51f 53f
4:48pm 31 39 mph 1013.4mb 51f 53f
4:42pm 29 34 mph 1013.5mb 51f 53f
4:36pm 31 36 mph 1013.5mb 51f 54f
4:30pm 26 30 mph 1013.4mb 51f 53f
4:24pm 28 33 mph 1013.5mb 51f 54f
4:18pm 22 29 mph 1013.6mb 51f 53f
4:12pm 24 30 mph 1013.5mb 51f 54f
4:06pm 22 29 mph 1013.3mb 51f 53f
4:00pm 24 29 mph 1013.2mb 51f 54f
3:54pm 25 31 mph 1013.1mb 51f 54f
3:48pm 22 28 mph 1013.1mb 51f 54f
3:42pm 23 28 mph 1012.9mb 51f 54f
3:36pm 23 31 mph 1013mb 51f 54f
3:30pm 24 29 mph 1012.9mb 51f 53f
3:24pm 28 33 mph 1012.9mb 51f 54f
3:18pm 28 31 mph 1012.8mb 51f 54f
3:12pm 26 32 mph 1012.8mb 51f 53f
3:06pm 29 33 mph 1012.9mb 51f 53f
3:00pm 26 33 mph 1013.1mb 51f 53f
2:54pm 28 33 mph 1013.3mb 51f 53f
2:48pm 25 31 mph 1013.4mb 51f 53f
2:42pm 29 33 mph 1013.5mb 51f 53f
2:36pm 28 32 mph 1013.8mb 51f 53f
2:30pm 29 33 mph 1014.1mb 51f 53f
2:24pm 29 33 mph 1014.2mb 51f 53f
2:18pm 29 32 mph 1014.4mb 51f 53f
2:12pm 29 32 mph 1014.4mb 51f 53f
2:06pm 28 32 mph 1014.7mb 51f 53f
2:00pm 28 32 mph 1014.8mb 51f 53f
1:54pm 28 32 mph 1014.8mb 51f 52f
1:48pm 25 33 mph 1015.1mb 51f 53f
1:42pm 26 33 mph 1015.1mb 51f 53f
1:36pm 29 33 mph 1015.2mb 51f 53f
1:30pm 29 33 mph 1015mb 51f 53f
1:24pm 29 33 mph 1015.2mb 51f 53f
1:18pm 26 31 mph 1015.3mb 51f 52f
1:12pm 28 32 mph 1015.6mb 51f 52f
1:06pm 26 31 mph 1015.8mb 51f 52f
1:00pm 29 34 mph 1016mb 51f 52f
12:54pm 28 32 mph 1016mb 51f 52f
12:48pm 26 32 mph 1015.9mb 51f 52f
12:42pm 26 33 mph 1015.8mb 51f 52f
12:36pm 28 33 mph 1015.7mb 51f 52f
12:30pm 26 33 mph 1015.8mb 51f 51f
12:24pm 26 31 mph 1016mb 51f 51f
12:18pm 22 30 mph 1016.2mb 51f 51f
12:12pm 20 24 mph 1016.5mb 51f 51f
12:06pm 23 26 mph 1016.5mb 51f 51f
12:00pm 22 25 mph 1016.7mb 51f 51f
11:54am 23 28 mph 1017mb 51f 50f
11:48am 21 26 mph 1017.1mb 51f 50f
11:42am 22 26 mph 1017.3mb 51f 50f
11:36am 22 25 mph 1017.3mb 51f 50f
11:30am 22 26 mph 1017.2mb 51f 50f
11:24am 23 26 mph 1017.3mb 51f 50f
11:18am 22 26 mph 1017.3mb 51f 50f
11:12am 23 26 mph 1017.3mb 51f 50f
11:06am 23 26 mph 1017.4mb 51f 50f
11:00am 21 28 mph 1017.6mb 51f 50f
10:54am 23 26 mph 1017.9mb 51f 49f
10:48am 23 28 mph 1018mb 51f 49f
10:42am 22 25 mph 1018.1mb 51f 49f
10:36am 21 25 mph 1018.2mb 51f 49f
10:30am 21 26 mph 1018mb 51f 50f
10:24am 22 29 mph 1018.1mb 51f 49f
10:18am 23 29 mph 1018.2mb 51f 50f
10:12am 24 28 mph 1018.1mb 51f 50f
10:06am 21 25 mph 1018.2mb 51f 50f
10:00am 21 24 mph 1018.5mb 51f 50f
9:54am 20 24 mph 1018.7mb 51f 50f
9:48am 18 24 mph 1019mb 51f 50f
9:42am 21 23 mph 1019mb 51f 50f
9:36am 20 23 mph 1019.2mb 51f 50f
9:30am 18 21 mph 1019.2mb 51f 50f
9:24am 16 21 mph 1019.1mb 51f 50f
9:18am 20 22 mph 1019mb 51f 50f
9:12am 18 22 mph 1018.9mb 51f 50f
9:06am 18 22 mph 1018.8mb 51f 50f
9:00am 17 21 mph 1018.6mb 51f 50f
8:54am 17 21 mph 1018.6mb 51f 50f
8:48am 17 22 mph 1018.8mb 51f 49f
8:42am 17 21 mph 1019mb 51f 49f
8:36am 17 20 mph 1019mb 51f 50f
8:30am 17 21 mph 1019.1mb 51f 50f
8:24am 18 21 mph 1019mb 51f 50f
8:18am 17 20 mph 1019mb 51f 50f
8:12am 16 20 mph 1018.9mb 51f 50f
8:06am 14 18 mph 1018.7mb 51f 50f
8:00am 14 17 mph 1018.7mb 51f 50f
7:54am 13 17 mph 1018.6mb 51f 50f
7:48am 15 17 mph 1018.5mb 51f 50f
7:42am 16 20 mph 1018.5mb 51f 49f
7:36am 15 20 mph 1018.6mb 51f 49f
7:30am 16 17 mph 1018.6mb 51f 49f
7:24am 15 18 mph 1018.7mb 51f 49f
7:18am 14 18 mph 1018.8mb 51f 49f
7:12am 14 17 mph 1018.8mb 51f 49f
7:06am 16 20 mph 1018.9mb 51f 49f
7:00am 16 20 mph 1019.1mb 51f 49f
6:54am 14 17 mph 1019mb 51f 49f
6:48am 15 21 mph 1019.1mb 51f 49f
5:54am 15 18 mph 1019.8mb 51f 49f
5:48am 15 18 mph 1019.7mb 51f 49f